sensor_id;sensor_type;location;lat;lon;timestamp;temperature;humidity
5344;DHT22;2694;48.954;8.928;2023-04-24T00:02:06;12.00;99.90
5344;DHT22;2694;48.954;8.928;2023-04-24T00:04:36;12.00;99.90
5344;DHT22;2694;48.954;8.928;2023-04-24T00:07:06;12.00;99.90
5344;DHT22;2694;48.954;8.928;2023-04-24T00:09:33;12.00;99.90
5344;DHT22;2694;48.954;8.928;2023-04-24T00:12:01;12.00;99.90
5344;DHT22;2694;48.954;8.928;2023-04-24T00:14:29;12.10;99.90
5344;DHT22;2694;48.954;8.928;2023-04-24T00:16:56;12.10;99.90
5344;DHT22;2694;48.954;8.928;2023-04-24T00:19:23;12.10;99.90
5344;DHT22;2694;48.954;8.928;2023-04-24T00:21:50;12.10;99.90
5344;DHT22;2694;48.954;8.928;2023-04-24T00:24:17;12.20;99.90
5344;DHT22;2694;48.954;8.928;2023-04-24T00:26:44;12.10;99.90
5344;DHT22;2694;48.954;8.928;2023-04-24T00:29:13;12.00;99.90
5344;DHT22;2694;48.954;8.928;2023-04-24T00:31:40;12.00;99.90
5344;DHT22;2694;48.954;8.928;2023-04-24T00:34:07;12.00;99.90
5344;DHT22;2694;48.954;8.928;2023-04-24T00:36:34;12.10;99.90
5344;DHT22;2694;48.954;8.928;2023-04-24T00:39:00;12.10;99.90
5344;DHT22;2694;48.954;8.928;2023-04-24T00:41:27;12.10;99.90
5344;DHT22;2694;48.954;8.928;2023-04-24T00:43:54;12.20;99.90
5344;DHT22;2694;48.954;8.928;2023-04-24T00:46:23;12.20;99.90
5344;DHT22;2694;48.954;8.928;2023-04-24T00:48:50;12.20;99.90
5344;DHT22;2694;48.954;8.928;2023-04-24T00:51:17;12.20;99.90
5344;DHT22;2694;48.954;8.928;2023-04-24T00:53:44;12.30;99.90
5344;DHT22;2694;48.954;8.928;2023-04-24T00:56:11;12.30;99.90
5344;DHT22;2694;48.954;8.928;2023-04-24T00:58:38;12.30;99.90
5344;DHT22;2694;48.954;8.928;2023-04-24T01:01:06;12.30;99.90
5344;DHT22;2694;48.954;8.928;2023-04-24T01:03:34;12.30;99.90
5344;DHT22;2694;48.954;8.928;2023-04-24T01:06:03;12.30;99.90
5344;DHT22;2694;48.954;8.928;2023-04-24T01:08:30;12.30;99.90
5344;DHT22;2694;48.954;8.928;2023-04-24T01:10:58;12.20;99.90
5344;DHT22;2694;48.954;8.928;2023-04-24T01:13:25;12.20;99.90
5344;DHT22;2694;48.954;8.928;2023-04-24T01:15:51;12.20;99.90
5344;DHT22;2694;48.954;8.928;2023-04-24T01:18:18;12.20;99.90
5344;DHT22;2694;48.954;8.928;2023-04-24T01:20:49;12.10;99.90
5344;DHT22;2694;48.954;8.928;2023-04-24T01:23:19;12.10;99.90
5344;DHT22;2694;48.954;8.928;2023-04-24T01:25:46;12.10;99.90
5344;DHT22;2694;48.954;8.928;2023-04-24T01:28:14;12.00;99.90
5344;DHT22;2694;48.954;8.928;2023-04-24T01:30:42;11.90;99.90
5344;DHT22;2694;48.954;8.928;2023-04-24T01:33:09;11.90;99.90
5344;DHT22;2694;48.954;8.928;2023-04-24T01:35:37;11.80;99.90
5344;DHT22;2694;48.954;8.928;2023-04-24T01:38:04;11.90;99.90
5344;DHT22;2694;48.954;8.928;2023-04-24T01:40:33;11.80;99.90
5344;DHT22;2694;48.954;8.928;2023-04-24T01:43:00;11.80;99.90
5344;DHT22;2694;48.954;8.928;2023-04-24T01:45:27;11.70;99.90
5344;DHT22;2694;48.954;8.928;2023-04-24T01:47:54;11.70;99.90
5344;DHT22;2694;48.954;8.928;2023-04-24T01:50:22;11.60;99.90
5344;DHT22;2694;48.954;8.928;2023-04-24T01:52:48;11.60;99.90
5344;DHT22;2694;48.954;8.928;2023-04-24T01:55:15;11.60;99.90
5344;DHT22;2694;48.954;8.928;2023-04-24T01:57:44;11.60;99.90
5344;DHT22;2694;48.954;8.928;2023-04-24T02:00:11;11.60;99.90
5344;DHT22;2694;48.954;8.928;2023-04-24T02:02:39;11.60;99.90
5344;DHT22;2694;48.954;8.928;2023-04-24T02:05:07;11.60;99.90
5344;DHT22;2694;48.954;8.928;2023-04-24T02:07:34;11.60;99.90
5344;DHT22;2694;48.954;8.928;2023-04-24T02:10:01;11.70;99.90
5344;DHT22;2694;48.954;8.928;2023-04-24T02:12:29;11.70;99.90
5344;DHT22;2694;48.954;8.928;2023-04-24T02:14:58;11.70;99.90
5344;DHT22;2694;48.954;8.928;2023-04-24T02:17:25;11.70;99.90
5344;DHT22;2694;48.954;8.928;2023-04-24T02:19:52;11.70;99.90
5344;DHT22;2694;48.954;8.928;2023-04-24T02:22:19;11.80;99.90
5344;DHT22;2694;48.954;8.928;2023-04-24T02:24:46;11.80;99.90
5344;DHT22;2694;48.954;8.928;2023-04-24T02:27:13;11.80;99.90
5344;DHT22;2694;48.954;8.928;2023-04-24T02:29:40;11.80;99.90
5344;DHT22;2694;48.954;8.928;2023-04-24T02:32:08;11.70;99.90
5344;DHT22;2694;48.954;8.928;2023-04-24T02:34:37;11.70;99.90
5344;DHT22;2694;48.954;8.928;2023-04-24T02:37:04;11.70;99.90
5344;DHT22;2694;48.954;8.928;2023-04-24T02:39:31;11.80;99.90
5344;DHT22;2694;48.954;8.928;2023-04-24T02:41:58;11.80;99.90
5344;DHT22;2694;48.954;8.928;2023-04-24T02:44:25;11.80;99.90
5344;DHT22;2694;48.954;8.928;2023-04-24T02:46:52;11.70;99.90
5344;DHT22;2694;48.954;8.928;2023-04-24T02:49:20;11.70;99.90
5344;DHT22;2694;48.954;8.928;2023-04-24T02:51:47;11.70;99.90
5344;DHT22;2694;48.954;8.928;2023-04-24T02:54:14;11.70;99.90
5344;DHT22;2694;48.954;8.928;2023-04-24T02:56:41;12.20;99.90
5344;DHT22;2694;48.954;8.928;2023-04-24T02:59:08;11.60;99.90
5344;DHT22;2694;48.954;8.928;2023-04-24T03:01:35;11.50;99.90
5344;DHT22;2694;48.954;8.928;2023-04-24T03:04:02;11.40;99.90
5344;DHT22;2694;48.954;8.928;2023-04-24T03:06:31;11.30;99.90
5344;DHT22;2694;48.954;8.928;2023-04-24T03:09:01;11.20;99.90
5344;DHT22;2694;48.954;8.928;2023-04-24T03:11:29;11.10;99.90
5344;DHT22;2694;48.954;8.928;2023-04-24T03:13:55;11.10;99.90
5344;DHT22;2694;48.954;8.928;2023-04-24T03:16:22;11.00;99.90
5344;DHT22;2694;48.954;8.928;2023-04-24T03:18:49;11.10;99.90
5344;DHT22;2694;48.954;8.928;2023-04-24T03:21:16;11.10;99.90
5344;DHT22;2694;48.954;8.928;2023-04-24T03:23:44;11.20;99.90
5344;DHT22;2694;48.954;8.928;2023-04-24T03:26:11;11.20;99.90
5344;DHT22;2694;48.954;8.928;2023-04-24T03:28:38;11.20;99.90
5344;DHT22;2694;48.954;8.928;2023-04-24T03:31:05;11.20;99.90
5344;DHT22;2694;48.954;8.928;2023-04-24T03:33:32;11.20;99.90
5344;DHT22;2694;48.954;8.928;2023-04-24T03:35:59;11.30;99.90
5344;DHT22;2694;48.954;8.928;2023-04-24T03:38:26;11.30;99.90
5344;DHT22;2694;48.954;8.928;2023-04-24T03:40:54;11.30;99.90
5344;DHT22;2694;48.954;8.928;2023-04-24T03:43:21;11.30;99.90
5344;DHT22;2694;48.954;8.928;2023-04-24T03:45:48;11.20;99.90
5344;DHT22;2694;48.954;8.928;2023-04-24T03:48:15;11.10;99.90
5344;DHT22;2694;48.954;8.928;2023-04-24T03:50:42;11.10;99.90
5344;DHT22;2694;48.954;8.928;2023-04-24T03:53:08;11.00;99.90
5344;DHT22;2694;48.954;8.928;2023-04-24T03:55:35;10.90;99.90
5344;DHT22;2694;48.954;8.928;2023-04-24T03:58:04;10.70;99.90
5344;DHT22;2694;48.954;8.928;2023-04-24T04:00:31;10.40;99.90
5344;DHT22;2694;48.954;8.928;2023-04-24T04:02:58;8.70;99.90
5344;DHT22;2694;48.954;8.928;2023-04-24T04:05:25;9.90;99.90
5344;DHT22;2694;48.954;8.928;2023-04-24T04:07:52;9.70;99.90
5344;DHT22;2694;48.954;8.928;2023-04-24T04:10:19;9.60;99.90
5344;DHT22;2694;48.954;8.928;2023-04-24T04:12:46;9.50;99.90
5344;DHT22;2694;48.954;8.928;2023-04-24T04:15:14;9.50;99.90
5344;DHT22;2694;48.954;8.928;2023-04-24T04:17:43;9.40;99.90
5344;DHT22;2694;48.954;8.928;2023-04-24T04:20:11;9.40;99.90
5344;DHT22;2694;48.954;8.928;2023-04-24T04:22:38;9.40;99.90
5344;DHT22;2694;48.954;8.928;2023-04-24T04:25:06;9.40;99.90
5344;DHT22;2694;48.954;8.928;2023-04-24T04:27:34;9.40;99.90
5344;DHT22;2694;48.954;8.928;2023-04-24T04:30:02;9.40;99.90
5344;DHT22;2694;48.954;8.928;2023-04-24T04:32:31;9.40;99.90
5344;DHT22;2694;48.954;8.928;2023-04-24T04:34:58;9.40;99.90
5344;DHT22;2694;48.954;8.928;2023-04-24T04:37:28;9.30;99.90
5344;DHT22;2694;48.954;8.928;2023-04-24T04:39:55;9.30;99.90
5344;DHT22;2694;48.954;8.928;2023-04-24T04:42:23;9.30;99.90
5344;DHT22;2694;48.954;8.928;2023-04-24T04:44:50;9.40;99.90
5344;DHT22;2694;48.954;8.928;2023-04-24T04:47:18;9.40;99.90
5344;DHT22;2694;48.954;8.928;2023-04-24T04:49:48;9.40;99.90
5344;DHT22;2694;48.954;8.928;2023-04-24T04:52:16;9.50;99.90
5344;DHT22;2694;48.954;8.928;2023-04-24T04:54:43;9.40;99.90
5344;DHT22;2694;48.954;8.928;2023-04-24T04:57:11;9.40;99.90
5344;DHT22;2694;48.954;8.928;2023-04-24T04:59:38;9.30;99.90
5344;DHT22;2694;48.954;8.928;2023-04-24T05:02:06;9.20;99.90
5344;DHT22;2694;48.954;8.928;2023-04-24T05:04:33;9.10;99.90
5344;DHT22;2694;48.954;8.928;2023-04-24T05:07:01;9.10;99.90
5344;DHT22;2694;48.954;8.928;2023-04-24T05:09:28;9.10;99.90
5344;DHT22;2694;48.954;8.928;2023-04-24T05:11:55;9.00;99.90
5344;DHT22;2694;48.954;8.928;2023-04-24T05:14:22;9.00;99.90
5344;DHT22;2694;48.954;8.928;2023-04-24T05:16:49;9.00;99.90
5344;DHT22;2694;48.954;8.928;2023-04-24T05:19:16;9.00;99.90
5344;DHT22;2694;48.954;8.928;2023-04-24T05:21:43;9.00;99.90
5344;DHT22;2694;48.954;8.928;2023-04-24T05:24:12;9.00;99.90
5344;DHT22;2694;48.954;8.928;2023-04-24T05:26:39;9.00;99.90
5344;DHT22;2694;48.954;8.928;2023-04-24T05:29:05;9.00;99.90
5344;DHT22;2694;48.954;8.928;2023-04-24T05:31:32;9.10;99.90
5344;DHT22;2694;48.954;8.928;2023-04-24T05:33:59;9.30;99.90
5344;DHT22;2694;48.954;8.928;2023-04-24T05:36:26;9.40;99.90
5344;DHT22;2694;48.954;8.928;2023-04-24T05:38:53;9.50;99.90
5344;DHT22;2694;48.954;8.928;2023-04-24T05:41:22;9.50;99.90
5344;DHT22;2694;48.954;8.928;2023-04-24T05:43:49;9.50;99.90
5344;DHT22;2694;48.954;8.928;2023-04-24T05:46:16;9.70;99.90
5344;DHT22;2694;48.954;8.928;2023-04-24T05:48:44;9.60;99.90
5344;DHT22;2694;48.954;8.928;2023-04-24T05:51:11;9.60;99.90
5344;DHT22;2694;48.954;8.928;2023-04-24T05:53:38;9.50;99.90
5344;DHT22;2694;48.954;8.928;2023-04-24T05:56:05;9.50;99.90
5344;DHT22;2694;48.954;8.928;2023-04-24T05:58:33;9.60;99.90
5344;DHT22;2694;48.954;8.928;2023-04-24T06:01:00;9.70;99.90
5344;DHT22;2694;48.954;8.928;2023-04-24T06:03:28;9.80;99.90
5344;DHT22;2694;48.954;8.928;2023-04-24T06:05:55;9.90;99.90
5344;DHT22;2694;48.954;8.928;2023-04-24T06:08:22;10.10;99.90
5344;DHT22;2694;48.954;8.928;2023-04-24T06:10:48;10.00;99.90
5344;DHT22;2694;48.954;8.928;2023-04-24T06:13:15;10.20;99.90
5344;DHT22;2694;48.954;8.928;2023-04-24T06:15:44;10.50;99.90
5344;DHT22;2694;48.954;8.928;2023-04-24T06:18:11;10.80;99.90
5344;DHT22;2694;48.954;8.928;2023-04-24T06:20:38;11.00;99.90
5344;DHT22;2694;48.954;8.928;2023-04-24T06:23:05;11.80;99.90
5344;DHT22;2694;48.954;8.928;2023-04-24T06:25:32;11.00;99.90
5344;DHT22;2694;48.954;8.928;2023-04-24T06:27:59;11.00;99.90
5344;DHT22;2694;48.954;8.928;2023-04-24T06:30:27;11.20;99.90
5344;DHT22;2694;48.954;8.928;2023-04-24T06:32:55;11.30;99.90
5344;DHT22;2694;48.954;8.928;2023-04-24T06:35:22;11.40;99.90
5344;DHT22;2694;48.954;8.928;2023-04-24T06:37:49;11.50;99.90
5344;DHT22;2694;48.954;8.928;2023-04-24T06:40:15;11.40;99.90
5344;DHT22;2694;48.954;8.928;2023-04-24T06:42:44;11.50;99.90
5344;DHT22;2694;48.954;8.928;2023-04-24T06:45:11;11.30;99.90
5344;DHT22;2694;48.954;8.928;2023-04-24T06:47:37;11.40;99.90
5344;DHT22;2694;48.954;8.928;2023-04-24T06:50:07;11.40;99.90
5344;DHT22;2694;48.954;8.928;2023-04-24T06:52:34;11.20;99.90
5344;DHT22;2694;48.954;8.928;2023-04-24T06:55:01;11.10;99.90
5344;DHT22;2694;48.954;8.928;2023-04-24T06:57:28;11.10;99.90
5344;DHT22;2694;48.954;8.928;2023-04-24T06:59:55;11.00;99.90
5344;DHT22;2694;48.954;8.928;2023-04-24T07:02:22;11.10;99.90
5344;DHT22;2694;48.954;8.928;2023-04-24T07:04:49;11.20;99.90
5344;DHT22;2694;48.954;8.928;2023-04-24T07:07:17;11.30;99.90
5344;DHT22;2694;48.954;8.928;2023-04-24T07:09:44;11.20;99.90
5344;DHT22;2694;48.954;8.928;2023-04-24T07:12:11;11.20;99.90
5344;DHT22;2694;48.954;8.928;2023-04-24T07:14:39;11.20;99.90
5344;DHT22;2694;48.954;8.928;2023-04-24T07:17:06;11.10;99.90
5344;DHT22;2694;48.954;8.928;2023-04-24T07:19:33;11.10;99.90
5344;DHT22;2694;48.954;8.928;2023-04-24T07:22:00;11.90;99.90
5344;DHT22;2694;48.954;8.928;2023-04-24T07:24:30;11.50;99.90
5344;DHT22;2694;48.954;8.928;2023-04-24T07:26:58;11.60;99.90
5344;DHT22;2694;48.954;8.928;2023-04-24T07:29:26;11.50;99.90
5344;DHT22;2694;48.954;8.928;2023-04-24T07:31:53;11.40;99.90
5344;DHT22;2694;48.954;8.928;2023-04-24T07:34:21;11.20;99.90
5344;DHT22;2694;48.954;8.928;2023-04-24T07:36:48;11.10;99.90
5344;DHT22;2694;48.954;8.928;2023-04-24T07:39:15;11.10;99.90
5344;DHT22;2694;48.954;8.928;2023-04-24T07:41:44;11.10;99.90
5344;DHT22;2694;48.954;8.928;2023-04-24T07:44:11;11.10;99.90
5344;DHT22;2694;48.954;8.928;2023-04-24T07:46:37;11.10;99.90
5344;DHT22;2694;48.954;8.928;2023-04-24T07:49:04;11.00;99.90
5344;DHT22;2694;48.954;8.928;2023-04-24T07:51:32;11.00;99.90
5344;DHT22;2694;48.954;8.928;2023-04-24T07:54:03;10.80;99.90
5344;DHT22;2694;48.954;8.928;2023-04-24T07:56:31;10.90;99.90
5344;DHT22;2694;48.954;8.928;2023-04-24T07:58:59;10.90;99.90
5344;DHT22;2694;48.954;8.928;2023-04-24T08:01:27;11.00;99.90
5344;DHT22;2694;48.954;8.928;2023-04-24T08:03:54;11.20;99.90
5344;DHT22;2694;48.954;8.928;2023-04-24T08:06:21;11.40;99.90
5344;DHT22;2694;48.954;8.928;2023-04-24T08:08:48;11.50;99.90
5344;DHT22;2694;48.954;8.928;2023-04-24T08:11:15;11.60;99.90
5344;DHT22;2694;48.954;8.928;2023-04-24T08:13:42;11.70;99.90
5344;DHT22;2694;48.954;8.928;2023-04-24T08:16:10;11.60;99.90
5344;DHT22;2694;48.954;8.928;2023-04-24T08:18:37;11.60;99.90
5344;DHT22;2694;48.954;8.928;2023-04-24T08:21:04;11.70;99.90
5344;DHT22;2694;48.954;8.928;2023-04-24T08:23:31;12.00;99.90
5344;DHT22;2694;48.954;8.928;2023-04-24T08:25:58;12.50;99.90
5344;DHT22;2694;48.954;8.928;2023-04-24T08:28:25;13.00;99.90
5344;DHT22;2694;48.954;8.928;2023-04-24T08:30:52;12.70;99.90
5344;DHT22;2694;48.954;8.928;2023-04-24T08:33:21;12.60;99.90
5344;DHT22;2694;48.954;8.928;2023-04-24T08:35:48;12.10;99.90
5344;DHT22;2694;48.954;8.928;2023-04-24T08:38:15;12.10;99.90
5344;DHT22;2694;48.954;8.928;2023-04-24T08:40:42;12.20;99.90
5344;DHT22;2694;48.954;8.928;2023-04-24T08:43:12;12.00;99.90
5344;DHT22;2694;48.954;8.928;2023-04-24T08:45:39;11.90;99.90
5344;DHT22;2694;48.954;8.928;2023-04-24T08:48:07;12.10;99.90
5344;DHT22;2694;48.954;8.928;2023-04-24T08:50:37;12.30;99.90
5344;DHT22;2694;48.954;8.928;2023-04-24T08:53:04;12.40;99.90
5344;DHT22;2694;48.954;8.928;2023-04-24T08:55:32;12.20;99.90
5344;DHT22;2694;48.954;8.928;2023-04-24T08:58:00;12.20;99.90
5344;DHT22;2694;48.954;8.928;2023-04-24T09:00:28;12.30;99.90
5344;DHT22;2694;48.954;8.928;2023-04-24T09:02:55;12.40;99.90
5344;DHT22;2694;48.954;8.928;2023-04-24T09:05:22;12.50;99.90
5344;DHT22;2694;48.954;8.928;2023-04-24T09:07:54;12.10;99.90
5344;DHT22;2694;48.954;8.928;2023-04-24T09:10:22;12.40;99.90
5344;DHT22;2694;48.954;8.928;2023-04-24T09:12:51;12.40;99.90
5344;DHT22;2694;48.954;8.928;2023-04-24T09:15:18;12.20;99.90
5344;DHT22;2694;48.954;8.928;2023-04-24T09:17:46;12.60;99.90
5344;DHT22;2694;48.954;8.928;2023-04-24T09:20:13;12.50;99.90
5344;DHT22;2694;48.954;8.928;2023-04-24T09:22:42;12.20;99.90
5344;DHT22;2694;48.954;8.928;2023-04-24T09:25:11;11.80;99.90
5344;DHT22;2694;48.954;8.928;2023-04-24T09:27:41;11.70;99.90
5344;DHT22;2694;48.954;8.928;2023-04-24T09:30:11;11.80;99.90
5344;DHT22;2694;48.954;8.928;2023-04-24T09:32:38;11.80;99.90
5344;DHT22;2694;48.954;8.928;2023-04-24T09:35:10;12.10;99.90
5344;DHT22;2694;48.954;8.928;2023-04-24T09:37:38;11.80;99.90
5344;DHT22;2694;48.954;8.928;2023-04-24T09:40:14;11.70;99.90
5344;DHT22;2694;48.954;8.928;2023-04-24T09:42:44;12.10;99.90
5344;DHT22;2694;48.954;8.928;2023-04-24T09:45:12;12.80;99.90
5344;DHT22;2694;48.954;8.928;2023-04-24T09:47:39;14.30;99.90
5344;DHT22;2694;48.954;8.928;2023-04-24T09:50:10;13.80;99.90
5344;DHT22;2694;48.954;8.928;2023-04-24T09:52:40;13.10;99.90
5344;DHT22;2694;48.954;8.928;2023-04-24T09:55:15;13.90;99.90
5344;DHT22;2694;48.954;8.928;2023-04-24T09:57:53;13.40;99.90
5344;DHT22;2694;48.954;8.928;2023-04-24T10:00:24;12.90;99.90
5344;DHT22;2694;48.954;8.928;2023-04-24T10:02:56;12.80;99.90
5344;DHT22;2694;48.954;8.928;2023-04-24T10:05:26;12.60;99.90
5344;DHT22;2694;48.954;8.928;2023-04-24T10:07:57;12.60;99.90
5344;DHT22;2694;48.954;8.928;2023-04-24T10:10:26;12.60;99.90
5344;DHT22;2694;48.954;8.928;2023-04-24T10:12:53;12.80;99.90
5344;DHT22;2694;48.954;8.928;2023-04-24T10:15:21;12.70;99.90
5344;DHT22;2694;48.954;8.928;2023-04-24T10:17:49;12.30;99.90
5344;DHT22;2694;48.954;8.928;2023-04-24T10:20:19;12.10;99.90
5344;DHT22;2694;48.954;8.928;2023-04-24T10:22:48;11.70;99.90
5344;DHT22;2694;48.954;8.928;2023-04-24T10:25:18;11.40;99.90
5344;DHT22;2694;48.954;8.928;2023-04-24T10:27:48;11.40;99.90
5344;DHT22;2694;48.954;8.928;2023-04-24T10:30:15;11.40;99.90
5344;DHT22;2694;48.954;8.928;2023-04-24T10:32:43;11.30;99.90
5344;DHT22;2694;48.954;8.928;2023-04-24T10:35:11;11.30;99.90
5344;DHT22;2694;48.954;8.928;2023-04-24T10:37:40;11.30;99.90
5344;DHT22;2694;48.954;8.928;2023-04-24T10:40:09;11.60;99.90
5344;DHT22;2694;48.954;8.928;2023-04-24T10:42:39;11.90;99.90
5344;DHT22;2694;48.954;8.928;2023-04-24T10:45:16;12.30;99.90
5344;DHT22;2694;48.954;8.928;2023-04-24T10:47:51;12.40;99.90
5344;DHT22;2694;48.954;8.928;2023-04-24T10:50:18;12.70;99.90
5344;DHT22;2694;48.954;8.928;2023-04-24T10:52:46;12.80;99.90
5344;DHT22;2694;48.954;8.928;2023-04-24T10:55:14;12.70;99.90
5344;DHT22;2694;48.954;8.928;2023-04-24T10:58:02;12.40;99.90
5344;DHT22;2694;48.954;8.928;2023-04-24T11:00:31;13.00;99.90
5344;DHT22;2694;48.954;8.928;2023-04-24T11:02:58;13.10;99.90
5344;DHT22;2694;48.954;8.928;2023-04-24T11:05:50;12.90;99.90
5344;DHT22;2694;48.954;8.928;2023-04-24T11:08:26;13.10;99.90
5344;DHT22;2694;48.954;8.928;2023-04-24T11:10:59;13.20;99.90
5344;DHT22;2694;48.954;8.928;2023-04-24T11:13:31;13.00;99.90
5344;DHT22;2694;48.954;8.928;2023-04-24T11:16:26;12.90;99.90
5344;DHT22;2694;48.954;8.928;2023-04-24T11:19:01;13.00;99.90
5344;DHT22;2694;48.954;8.928;2023-04-24T11:21:32;13.10;99.90
5344;DHT22;2694;48.954;8.928;2023-04-24T11:24:26;13.00;99.90
5344;DHT22;2694;48.954;8.928;2023-04-24T11:26:54;13.20;99.90
5344;DHT22;2694;48.954;8.928;2023-04-24T11:29:22;13.20;99.90
5344;DHT22;2694;48.954;8.928;2023-04-24T11:31:51;13.10;99.90
5344;DHT22;2694;48.954;8.928;2023-04-24T11:34:18;12.90;99.90
5344;DHT22;2694;48.954;8.928;2023-04-24T11:36:45;13.00;99.90
5344;DHT22;2694;48.954;8.928;2023-04-24T11:39:13;12.90;99.90
5344;DHT22;2694;48.954;8.928;2023-04-24T11:41:40;12.60;99.90
5344;DHT22;2694;48.954;8.928;2023-04-24T11:44:07;12.70;99.90
5344;DHT22;2694;48.954;8.928;2023-04-24T11:46:35;13.10;99.90
5344;DHT22;2694;48.954;8.928;2023-04-24T11:49:04;13.30;99.90
5344;DHT22;2694;48.954;8.928;2023-04-24T11:51:32;13.40;99.90
5344;DHT22;2694;48.954;8.928;2023-04-24T11:53:59;13.00;99.90
5344;DHT22;2694;48.954;8.928;2023-04-24T11:56:26;12.80;99.90
5344;DHT22;2694;48.954;8.928;2023-04-24T11:58:53;12.50;99.90
5344;DHT22;2694;48.954;8.928;2023-04-24T12:01:20;12.80;99.90
5344;DHT22;2694;48.954;8.928;2023-04-24T12:03:48;13.00;99.90
5344;DHT22;2694;48.954;8.928;2023-04-24T12:06:18;13.10;99.90
5344;DHT22;2694;48.954;8.928;2023-04-24T12:08:48;12.90;99.90
5344;DHT22;2694;48.954;8.928;2023-04-24T12:11:16;12.60;99.90
5344;DHT22;2694;48.954;8.928;2023-04-24T12:13:46;12.20;99.90
5344;DHT22;2694;48.954;8.928;2023-04-24T12:16:13;11.80;99.90
5344;DHT22;2694;48.954;8.928;2023-04-24T12:18:43;11.40;99.90
5344;DHT22;2694;48.954;8.928;2023-04-24T12:21:22;11.30;99.90
5344;DHT22;2694;48.954;8.928;2023-04-24T12:23:54;11.30;99.90
5344;DHT22;2694;48.954;8.928;2023-04-24T12:26:21;11.60;99.90
5344;DHT22;2694;48.954;8.928;2023-04-24T12:28:49;12.10;99.90
5344;DHT22;2694;48.954;8.928;2023-04-24T12:31:16;12.20;99.90
5344;DHT22;2694;48.954;8.928;2023-04-24T12:33:43;13.40;99.90
5344;DHT22;2694;48.954;8.928;2023-04-24T12:36:11;13.20;99.90
5344;DHT22;2694;48.954;8.928;2023-04-24T12:38:43;13.10;99.90
5344;DHT22;2694;48.954;8.928;2023-04-24T12:41:12;12.90;99.90
5344;DHT22;2694;48.954;8.928;2023-04-24T12:43:51;12.60;99.90
5344;DHT22;2694;48.954;8.928;2023-04-24T12:46:18;12.50;99.90
5344;DHT22;2694;48.954;8.928;2023-04-24T12:48:46;12.30;99.90
5344;DHT22;2694;48.954;8.928;2023-04-24T12:51:13;12.30;99.90
5344;DHT22;2694;48.954;8.928;2023-04-24T12:53:41;12.20;99.90
5344;DHT22;2694;48.954;8.928;2023-04-24T12:56:08;12.20;99.90
5344;DHT22;2694;48.954;8.928;2023-04-24T12:58:35;12.30;99.90
5344;DHT22;2694;48.954;8.928;2023-04-24T13:01:02;12.40;99.90
5344;DHT22;2694;48.954;8.928;2023-04-24T13:03:28;12.60;99.90
5344;DHT22;2694;48.954;8.928;2023-04-24T13:05:55;12.70;99.90
5344;DHT22;2694;48.954;8.928;2023-04-24T13:08:22;12.90;99.90
5344;DHT22;2694;48.954;8.928;2023-04-24T13:10:50;12.80;99.90
5344;DHT22;2694;48.954;8.928;2023-04-24T13:13:19;12.70;99.90
5344;DHT22;2694;48.954;8.928;2023-04-24T13:15:46;12.70;99.90
5344;DHT22;2694;48.954;8.928;2023-04-24T13:18:13;12.40;99.90
5344;DHT22;2694;48.954;8.928;2023-04-24T13:20:40;12.40;99.90
5344;DHT22;2694;48.954;8.928;2023-04-24T13:23:07;12.70;99.90
5344;DHT22;2694;48.954;8.928;2023-04-24T13:25:35;13.00;99.90
5344;DHT22;2694;48.954;8.928;2023-04-24T13:28:04;13.30;99.90
5344;DHT22;2694;48.954;8.928;2023-04-24T13:30:31;13.10;99.90
5344;DHT22;2694;48.954;8.928;2023-04-24T13:32:58;13.10;99.90
5344;DHT22;2694;48.954;8.928;2023-04-24T13:35:25;12.90;99.90
5344;DHT22;2694;48.954;8.928;2023-04-24T13:37:52;12.70;99.90
5344;DHT22;2694;48.954;8.928;2023-04-24T13:40:19;12.60;99.90
5344;DHT22;2694;48.954;8.928;2023-04-24T13:42:46;12.70;99.90
5344;DHT22;2694;48.954;8.928;2023-04-24T13:45:14;12.60;99.90
5344;DHT22;2694;48.954;8.928;2023-04-24T13:47:41;12.90;99.90
5344;DHT22;2694;48.954;8.928;2023-04-24T13:50:09;12.90;99.90
5344;DHT22;2694;48.954;8.928;2023-04-24T13:52:35;13.10;99.90
5344;DHT22;2694;48.954;8.928;2023-04-24T13:55:03;13.10;99.90
5344;DHT22;2694;48.954;8.928;2023-04-24T13:57:31;13.00;99.90
5344;DHT22;2694;48.954;8.928;2023-04-24T13:59:58;12.90;99.90
5344;DHT22;2694;48.954;8.928;2023-04-24T14:02:30;12.80;99.90
5344;DHT22;2694;48.954;8.928;2023-04-24T14:04:58;12.50;99.90
5344;DHT22;2694;48.954;8.928;2023-04-24T14:07:25;12.40;99.90
5344;DHT22;2694;48.954;8.928;2023-04-24T14:09:53;12.70;99.90
5344;DHT22;2694;48.954;8.928;2023-04-24T14:12:20;13.20;99.90
5344;DHT22;2694;48.954;8.928;2023-04-24T14:14:47;13.30;99.90
5344;DHT22;2694;48.954;8.928;2023-04-24T14:17:14;13.50;99.90
5344;DHT22;2694;48.954;8.928;2023-04-24T14:19:42;13.80;99.90
5344;DHT22;2694;48.954;8.928;2023-04-24T14:22:09;14.00;99.90
5344;DHT22;2694;48.954;8.928;2023-04-24T14:24:36;14.00;99.90
5344;DHT22;2694;48.954;8.928;2023-04-24T14:27:03;14.10;99.90
5344;DHT22;2694;48.954;8.928;2023-04-24T14:29:30;14.10;99.90
5344;DHT22;2694;48.954;8.928;2023-04-24T14:31:57;14.10;99.90
5344;DHT22;2694;48.954;8.928;2023-04-24T14:34:24;13.80;99.90
5344;DHT22;2694;48.954;8.928;2023-04-24T14:36:53;13.40;99.90
5344;DHT22;2694;48.954;8.928;2023-04-24T14:39:20;13.50;99.90
5344;DHT22;2694;48.954;8.928;2023-04-24T14:41:47;13.40;99.90
5344;DHT22;2694;48.954;8.928;2023-04-24T14:44:13;13.10;99.90
5344;DHT22;2694;48.954;8.928;2023-04-24T14:46:41;12.90;99.90
5344;DHT22;2694;48.954;8.928;2023-04-24T14:49:08;12.80;99.90
5344;DHT22;2694;48.954;8.928;2023-04-24T14:51:37;13.10;99.90
5344;DHT22;2694;48.954;8.928;2023-04-24T14:54:05;13.30;99.90
5344;DHT22;2694;48.954;8.928;2023-04-24T14:56:32;13.50;99.90
5344;DHT22;2694;48.954;8.928;2023-04-24T14:58:59;13.40;99.90
5344;DHT22;2694;48.954;8.928;2023-04-24T15:01:26;13.10;99.90
5344;DHT22;2694;48.954;8.928;2023-04-24T15:03:53;13.00;99.90
5344;DHT22;2694;48.954;8.928;2023-04-24T15:06:20;12.90;99.90
5344;DHT22;2694;48.954;8.928;2023-04-24T15:08:47;12.70;99.90
5344;DHT22;2694;48.954;8.928;2023-04-24T15:11:15;12.60;99.90
5344;DHT22;2694;48.954;8.928;2023-04-24T15:13:42;12.40;99.90
5344;DHT22;2694;48.954;8.928;2023-04-24T15:16:10;12.40;99.90
5344;DHT22;2694;48.954;8.928;2023-04-24T15:18:37;12.70;99.90
5344;DHT22;2694;48.954;8.928;2023-04-24T15:21:04;12.80;99.90
5344;DHT22;2694;48.954;8.928;2023-04-24T15:23:31;13.10;99.90
5344;DHT22;2694;48.954;8.928;2023-04-24T15:25:58;13.20;99.90
5344;DHT22;2694;48.954;8.928;2023-04-24T15:28:27;13.00;99.90
5344;DHT22;2694;48.954;8.928;2023-04-24T15:30:54;13.00;99.90
5344;DHT22;2694;48.954;8.928;2023-04-24T15:33:21;13.10;99.90
5344;DHT22;2694;48.954;8.928;2023-04-24T15:35:48;13.00;99.90
5344;DHT22;2694;48.954;8.928;2023-04-24T15:38:15;13.10;99.90
5344;DHT22;2694;48.954;8.928;2023-04-24T15:40:42;13.10;99.90
5344;DHT22;2694;48.954;8.928;2023-04-24T15:43:10;13.10;99.90
5344;DHT22;2694;48.954;8.928;2023-04-24T15:45:38;13.10;99.90
5344;DHT22;2694;48.954;8.928;2023-04-24T15:48:05;13.20;99.90
5344;DHT22;2694;48.954;8.928;2023-04-24T15:50:32;13.30;99.90
5344;DHT22;2694;48.954;8.928;2023-04-24T15:52:59;13.30;99.90
5344;DHT22;2694;48.954;8.928;2023-04-24T15:55:27;13.20;99.90
5344;DHT22;2694;48.954;8.928;2023-04-24T15:57:54;13.10;99.90
5344;DHT22;2694;48.954;8.928;2023-04-24T16:00:21;13.30;99.90
5344;DHT22;2694;48.954;8.928;2023-04-24T16:02:49;13.50;99.90
5344;DHT22;2694;48.954;8.928;2023-04-24T16:05:16;13.40;99.90
5344;DHT22;2694;48.954;8.928;2023-04-24T16:07:44;13.10;99.90
5344;DHT22;2694;48.954;8.928;2023-04-24T16:10:11;13.00;99.90